sensor_id;sensor_type;location;lat;lon;timestamp;P1;durP1;ratioP1;P2;durP2;ratioP2
39772;SDS011;25451;51.960;6.250;2023-05-24T00:00:27;9.43;;;1.37;;
39772;SDS011;25451;51.960;6.250;2023-05-24T00:02:52;7.45;;;1.55;;
39772;SDS011;25451;51.960;6.250;2023-05-24T00:05:18;4.90;;;1.23;;
39772;SDS011;25451;51.960;6.250;2023-05-24T00:07:43;7.15;;;1.30;;
39772;SDS011;25451;51.960;6.250;2023-05-24T00:10:09;4.38;;;1.33;;
39772;SDS011;25451;51.960;6.250;2023-05-24T00:12:35;6.20;;;1.50;;
39772;SDS011;25451;51.960;6.250;2023-05-24T00:15:00;4.00;;;1.30;;
39772;SDS011;25451;51.960;6.250;2023-05-24T00:17:25;5.40;;;1.40;;
39772;SDS011;25451;51.960;6.250;2023-05-24T00:19:51;5.20;;;1.17;;
39772;SDS011;25451;51.960;6.250;2023-05-24T00:22:17;5.63;;;1.50;;
39772;SDS011;25451;51.960;6.250;2023-05-24T00:24:44;5.78;;;1.67;;
39772;SDS011;25451;51.960;6.250;2023-05-24T00:27:10;4.53;;;1.30;;
39772;SDS011;25451;51.960;6.250;2023-05-24T00:29:36;4.90;;;1.47;;
39772;SDS011;25451;51.960;6.250;2023-05-24T00:32:01;7.07;;;1.53;;
39772;SDS011;25451;51.960;6.250;2023-05-24T00:34:26;5.93;;;1.40;;
39772;SDS011;25451;51.960;6.250;2023-05-24T00:36:51;5.70;;;1.70;;
39772;SDS011;25451;51.960;6.250;2023-05-24T00:39:17;4.40;;;1.42;;
39772;SDS011;25451;51.960;6.250;2023-05-24T00:41:42;3.97;;;1.60;;
39772;SDS011;25451;51.960;6.250;2023-05-24T00:44:07;6.10;;;1.67;;
39772;SDS011;25451;51.960;6.250;2023-05-24T00:46:34;6.60;;;1.67;;
39772;SDS011;25451;51.960;6.250;2023-05-24T00:49:00;7.63;;;1.77;;
39772;SDS011;25451;51.960;6.250;2023-05-24T00:51:25;6.27;;;1.80;;
39772;SDS011;25451;51.960;6.250;2023-05-24T00:53:52;8.70;;;1.75;;
39772;SDS011;25451;51.960;6.250;2023-05-24T00:56:17;8.30;;;1.63;;
39772;SDS011;25451;51.960;6.250;2023-05-24T00:58:42;7.97;;;2.00;;
39772;SDS011;25451;51.960;6.250;2023-05-24T01:01:08;5.93;;;1.80;;
39772;SDS011;25451;51.960;6.250;2023-05-24T01:03:34;8.90;;;2.10;;
39772;SDS011;25451;51.960;6.250;2023-05-24T01:06:01;5.10;;;1.67;;
39772;SDS011;25451;51.960;6.250;2023-05-24T01:11:16;5.75;;;1.60;;
39772;SDS011;25451;51.960;6.250;2023-05-24T01:23:02;5.57;;;1.60;;
39772;SDS011;25451;51.960;6.250;2023-05-24T01:25:13;7.65;;;1.65;;
39772;SDS011;25451;51.960;6.250;2023-05-24T01:27:46;6.97;;;1.63;;
39772;SDS011;25451;51.960;6.250;2023-05-24T01:30:12;5.15;;;1.58;;
39772;SDS011;25451;51.960;6.250;2023-05-24T01:32:38;6.50;;;1.63;;
39772;SDS011;25451;51.960;6.250;2023-05-24T01:35:04;8.43;;;2.10;;
39772;SDS011;25451;51.960;6.250;2023-05-24T01:37:30;5.70;;;1.60;;
39772;SDS011;25451;51.960;6.250;2023-05-24T01:39:55;5.63;;;1.67;;
39772;SDS011;25451;51.960;6.250;2023-05-24T01:45:39;8.93;;;2.20;;
39772;SDS011;25451;51.960;6.250;2023-05-24T01:48:18;6.85;;;1.70;;
39772;SDS011;25451;51.960;6.250;2023-05-24T01:50:54;8.50;;;1.75;;
39772;SDS011;25451;51.960;6.250;2023-05-24T01:53:23;8.52;;;1.92;;
39772;SDS011;25451;51.960;6.250;2023-05-24T01:55:51;9.63;;;1.85;;
39772;SDS011;25451;51.960;6.250;2023-05-24T01:58:20;7.20;;;1.70;;
39772;SDS011;25451;51.960;6.250;2023-05-24T02:00:47;7.97;;;1.55;;
39772;SDS011;25451;51.960;6.250;2023-05-24T02:03:13;5.80;;;1.58;;
39772;SDS011;25451;51.960;6.250;2023-05-24T02:05:39;7.80;;;1.60;;
39772;SDS011;25451;51.960;6.250;2023-05-24T02:08:05;7.23;;;2.00;;
39772;SDS011;25451;51.960;6.250;2023-05-24T02:10:30;8.43;;;1.73;;
39772;SDS011;25451;51.960;6.250;2023-05-24T02:12:56;7.87;;;1.70;;
39772;SDS011;25451;51.960;6.250;2023-05-24T02:15:23;8.48;;;1.55;;
39772;SDS011;25451;51.960;6.250;2023-05-24T02:17:50;6.22;;;1.70;;
39772;SDS011;25451;51.960;6.250;2023-05-24T02:20:18;4.97;;;1.60;;
39772;SDS011;25451;51.960;6.250;2023-05-24T02:22:46;8.35;;;2.20;;
39772;SDS011;25451;51.960;6.250;2023-05-24T02:25:12;6.73;;;1.90;;
39772;SDS011;25451;51.960;6.250;2023-05-24T02:27:37;8.93;;;1.87;;
39772;SDS011;25451;51.960;6.250;2023-05-24T02:30:03;10.20;;;2.20;;
39772;SDS011;25451;51.960;6.250;2023-05-24T02:32:29;6.30;;;1.60;;
39772;SDS011;25451;51.960;6.250;2023-05-24T02:34:55;9.93;;;2.20;;
39772;SDS011;25451;51.960;6.250;2023-05-24T02:37:23;8.77;;;1.80;;
39772;SDS011;25451;51.960;6.250;2023-05-24T02:39:48;7.10;;;1.83;;
39772;SDS011;25451;51.960;6.250;2023-05-24T02:42:13;6.60;;;1.90;;
39772;SDS011;25451;51.960;6.250;2023-05-24T02:44:39;3.95;;;1.52;;
39772;SDS011;25451;51.960;6.250;2023-05-24T02:47:06;7.93;;;1.70;;
39772;SDS011;25451;51.960;6.250;2023-05-24T02:49:31;8.03;;;2.03;;
39772;SDS011;25451;51.960;6.250;2023-05-24T02:51:56;7.10;;;1.83;;
39772;SDS011;25451;51.960;6.250;2023-05-24T02:54:22;9.73;;;1.75;;
39772;SDS011;25451;51.960;6.250;2023-05-24T02:56:47;7.73;;;1.70;;
39772;SDS011;25451;51.960;6.250;2023-05-24T02:59:12;8.40;;;1.80;;
39772;SDS011;25451;51.960;6.250;2023-05-24T03:01:38;8.43;;;1.90;;
39772;SDS011;25451;51.960;6.250;2023-05-24T03:04:04;8.40;;;1.90;;
39772;SDS011;25451;51.960;6.250;2023-05-24T03:06:29;8.00;;;1.83;;
39772;SDS011;25451;51.960;6.250;2023-05-24T03:08:55;6.60;;;1.97;;
39772;SDS011;25451;51.960;6.250;2023-05-24T03:11:20;8.38;;;1.90;;
39772;SDS011;25451;51.960;6.250;2023-05-24T03:13:46;7.17;;;1.73;;
39772;SDS011;25451;51.960;6.250;2023-05-24T03:16:12;6.00;;;1.60;;
39772;SDS011;25451;51.960;6.250;2023-05-24T03:18:38;5.77;;;1.73;;
39772;SDS011;25451;51.960;6.250;2023-05-24T03:21:03;8.20;;;1.60;;
39772;SDS011;25451;51.960;6.250;2023-05-24T03:23:29;5.32;;;1.80;;
39772;SDS011;25451;51.960;6.250;2023-05-24T03:25:54;8.95;;;1.70;;
39772;SDS011;25451;51.960;6.250;2023-05-24T03:28:19;6.97;;;1.80;;
39772;SDS011;25451;51.960;6.250;2023-05-24T03:30:46;5.95;;;1.60;;
39772;SDS011;25451;51.960;6.250;2023-05-24T03:33:11;7.07;;;1.63;;
39772;SDS011;25451;51.960;6.250;2023-05-24T03:35:37;5.83;;;1.67;;
39772;SDS011;25451;51.960;6.250;2023-05-24T03:38:02;6.87;;;1.67;;
39772;SDS011;25451;51.960;6.250;2023-05-24T03:40:27;6.13;;;1.70;;
39772;SDS011;25451;51.960;6.250;2023-05-24T03:42:56;7.22;;;1.80;;
39772;SDS011;25451;51.960;6.250;2023-05-24T03:45:21;12.13;;;1.97;;
39772;SDS011;25451;51.960;6.250;2023-05-24T03:47:46;7.53;;;1.90;;
39772;SDS011;25451;51.960;6.250;2023-05-24T03:50:12;6.20;;;1.90;;
39772;SDS011;25451;51.960;6.250;2023-05-24T03:52:38;6.35;;;1.70;;
39772;SDS011;25451;51.960;6.250;2023-05-24T03:55:03;7.70;;;1.60;;
39772;SDS011;25451;51.960;6.250;2023-05-24T03:57:29;5.22;;;1.67;;
39772;SDS011;25451;51.960;6.250;2023-05-24T03:59:55;5.20;;;1.73;;
39772;SDS011;25451;51.960;6.250;2023-05-24T04:02:20;6.78;;;1.67;;
39772;SDS011;25451;51.960;6.250;2023-05-24T04:04:45;5.38;;;1.65;;
39772;SDS011;25451;51.960;6.250;2023-05-24T04:07:11;6.57;;;1.63;;
39772;SDS011;25451;51.960;6.250;2023-05-24T04:09:37;6.27;;;1.83;;
39772;SDS011;25451;51.960;6.250;2023-05-24T04:12:03;6.97;;;1.80;;
39772;SDS011;25451;51.960;6.250;2023-05-24T04:14:28;7.60;;;1.67;;
39772;SDS011;25451;51.960;6.250;2023-05-24T04:16:54;7.93;;;1.63;;
39772;SDS011;25451;51.960;6.250;2023-05-24T04:19:19;6.37;;;2.20;;
39772;SDS011;25451;51.960;6.250;2023-05-24T04:21:45;7.70;;;1.90;;
39772;SDS011;25451;51.960;6.250;2023-05-24T04:24:10;10.63;;;1.90;;
39772;SDS011;25451;51.960;6.250;2023-05-24T04:26:36;9.10;;;1.90;;
39772;SDS011;25451;51.960;6.250;2023-05-24T04:29:02;9.95;;;2.00;;
39772;SDS011;25451;51.960;6.250;2023-05-24T04:31:27;6.50;;;1.80;;
39772;SDS011;25451;51.960;6.250;2023-05-24T04:33:54;8.30;;;1.60;;
39772;SDS011;25451;51.960;6.250;2023-05-24T04:36:21;4.88;;;1.50;;
39772;SDS011;25451;51.960;6.250;2023-05-24T04:38:49;10.30;;;1.95;;
39772;SDS011;25451;51.960;6.250;2023-05-24T04:41:17;10.85;;;1.85;;
39772;SDS011;25451;51.960;6.250;2023-05-24T04:43:43;8.20;;;1.87;;
39772;SDS011;25451;51.960;6.250;2023-05-24T04:46:08;10.57;;;1.90;;
39772;SDS011;25451;51.960;6.250;2023-05-24T04:48:34;8.43;;;1.80;;
39772;SDS011;25451;51.960;6.250;2023-05-24T04:50:59;10.37;;;2.10;;
39772;SDS011;25451;51.960;6.250;2023-05-24T04:53:25;12.20;;;2.63;;
39772;SDS011;25451;51.960;6.250;2023-05-24T04:55:50;9.73;;;1.80;;
39772;SDS011;25451;51.960;6.250;2023-05-24T04:58:16;10.50;;;2.03;;
39772;SDS011;25451;51.960;6.250;2023-05-24T05:00:42;10.63;;;2.03;;
39772;SDS011;25451;51.960;6.250;2023-05-24T05:03:08;10.82;;;2.00;;
39772;SDS011;25451;51.960;6.250;2023-05-24T05:05:33;8.48;;;1.80;;
39772;SDS011;25451;51.960;6.250;2023-05-24T05:07:59;8.97;;;2.03;;
39772;SDS011;25451;51.960;6.250;2023-05-24T05:10:24;8.83;;;1.73;;
39772;SDS011;25451;51.960;6.250;2023-05-24T05:12:50;10.40;;;2.05;;
39772;SDS011;25451;51.960;6.250;2023-05-24T05:15:16;9.03;;;2.10;;
39772;SDS011;25451;51.960;6.250;2023-05-24T05:17:41;8.77;;;2.20;;
39772;SDS011;25451;51.960;6.250;2023-05-24T05:20:06;7.50;;;1.80;;
39772;SDS011;25451;51.960;6.250;2023-05-24T05:22:32;10.70;;;2.47;;
39772;SDS011;25451;51.960;6.250;2023-05-24T05:24:58;7.10;;;2.10;;
39772;SDS011;25451;51.960;6.250;2023-05-24T05:27:23;7.03;;;1.70;;
39772;SDS011;25451;51.960;6.250;2023-05-24T05:29:49;9.93;;;2.10;;
39772;SDS011;25451;51.960;6.250;2023-05-24T05:32:14;8.20;;;2.10;;
39772;SDS011;25451;51.960;6.250;2023-05-24T05:34:40;8.60;;;1.85;;
39772;SDS011;25451;51.960;6.250;2023-05-24T05:37:05;6.10;;;1.70;;
39772;SDS011;25451;51.960;6.250;2023-05-24T05:39:31;7.27;;;2.10;;
39772;SDS011;25451;51.960;6.250;2023-05-24T05:41:56;11.50;;;2.40;;
39772;SDS011;25451;51.960;6.250;2023-05-24T05:44:22;12.85;;;2.45;;
39772;SDS011;25451;51.960;6.250;2023-05-24T05:46:47;10.73;;;2.60;;
39772;SDS011;25451;51.960;6.250;2023-05-24T05:49:13;11.13;;;2.40;;
39772;SDS011;25451;51.960;6.250;2023-05-24T05:51:40;12.93;;;2.72;;
39772;SDS011;25451;51.960;6.250;2023-05-24T05:54:06;11.83;;;2.80;;
39772;SDS011;25451;51.960;6.250;2023-05-24T05:56:39;9.68;;;2.55;;
39772;SDS011;25451;51.960;6.250;2023-05-24T05:59:09;11.43;;;2.55;;
39772;SDS011;25451;51.960;6.250;2023-05-24T06:01:35;9.70;;;2.10;;
39772;SDS011;25451;51.960;6.250;2023-05-24T06:04:00;12.60;;;2.50;;
39772;SDS011;25451;51.960;6.250;2023-05-24T06:06:26;11.40;;;2.53;;
39772;SDS011;25451;51.960;6.250;2023-05-24T06:08:51;12.03;;;2.63;;
39772;SDS011;25451;51.960;6.250;2023-05-24T06:11:16;10.70;;;2.27;;
39772;SDS011;25451;51.960;6.250;2023-05-24T06:13:41;10.93;;;2.70;;
39772;SDS011;25451;51.960;6.250;2023-05-24T06:16:07;10.77;;;2.50;;
39772;SDS011;25451;51.960;6.250;2023-05-24T06:18:32;11.83;;;2.90;;
39772;SDS011;25451;51.960;6.250;2023-05-24T06:20:58;13.27;;;3.15;;
39772;SDS011;25451;51.960;6.250;2023-05-24T06:23:23;15.20;;;2.60;;
39772;SDS011;25451;51.960;6.250;2023-05-24T06:25:49;8.83;;;2.37;;
39772;SDS011;25451;51.960;6.250;2023-05-24T06:28:14;9.93;;;2.57;;
39772;SDS011;25451;51.960;6.250;2023-05-24T06:30:40;8.65;;;2.17;;
39772;SDS011;25451;51.960;6.250;2023-05-24T06:33:05;15.00;;;2.87;;
39772;SDS011;25451;51.960;6.250;2023-05-24T06:35:31;11.37;;;2.53;;
39772;SDS011;25451;51.960;6.250;2023-05-24T06:37:56;12.43;;;2.50;;
39772;SDS011;25451;51.960;6.250;2023-05-24T06:40:21;13.67;;;2.23;;
39772;SDS011;25451;51.960;6.250;2023-05-24T06:42:47;15.48;;;3.03;;
39772;SDS011;25451;51.960;6.250;2023-05-24T06:45:12;11.70;;;2.17;;
39772;SDS011;25451;51.960;6.250;2023-05-24T06:47:38;9.07;;;2.30;;
39772;SDS011;25451;51.960;6.250;2023-05-24T06:50:03;11.80;;;2.20;;
39772;SDS011;25451;51.960;6.250;2023-05-24T06:52:29;14.50;;;2.60;;
39772;SDS011;25451;51.960;6.250;2023-05-24T06:54:54;15.87;;;2.50;;
39772;SDS011;25451;51.960;6.250;2023-05-24T06:57:20;12.98;;;2.38;;
39772;SDS011;25451;51.960;6.250;2023-05-24T06:59:46;12.45;;;2.58;;
39772;SDS011;25451;51.960;6.250;2023-05-24T07:02:11;8.40;;;2.13;;
39772;SDS011;25451;51.960;6.250;2023-05-24T07:04:36;10.03;;;2.13;;
39772;SDS011;25451;51.960;6.250;2023-05-24T07:07:04;13.15;;;2.40;;
39772;SDS011;25451;51.960;6.250;2023-05-24T07:09:30;11.93;;;2.20;;
39772;SDS011;25451;51.960;6.250;2023-05-24T07:11:55;16.67;;;2.50;;
39772;SDS011;25451;51.960;6.250;2023-05-24T07:14:21;11.50;;;2.38;;
39772;SDS011;25451;51.960;6.250;2023-05-24T07:16:48;12.70;;;2.23;;
39772;SDS011;25451;51.960;6.250;2023-05-24T07:19:13;10.93;;;2.35;;
39772;SDS011;25451;51.960;6.250;2023-05-24T07:21:39;11.87;;;2.30;;
39772;SDS011;25451;51.960;6.250;2023-05-24T07:24:04;11.73;;;2.25;;
39772;SDS011;25451;51.960;6.250;2023-05-24T07:26:30;13.93;;;2.50;;
39772;SDS011;25451;51.960;6.250;2023-05-24T07:28:55;10.97;;;2.40;;
39772;SDS011;25451;51.960;6.250;2023-05-24T07:31:21;16.30;;;2.50;;
39772;SDS011;25451;51.960;6.250;2023-05-24T07:33:46;11.40;;;2.53;;
39772;SDS011;25451;51.960;6.250;2023-05-24T07:36:12;13.50;;;2.07;;
39772;SDS011;25451;51.960;6.250;2023-05-24T07:38:39;12.68;;;2.67;;
39772;SDS011;25451;51.960;6.250;2023-05-24T07:41:05;12.23;;;2.57;;
39772;SDS011;25451;51.960;6.250;2023-05-24T07:43:31;12.88;;;2.25;;
39772;SDS011;25451;51.960;6.250;2023-05-24T07:45:56;9.87;;;2.40;;
39772;SDS011;25451;51.960;6.250;2023-05-24T07:48:22;10.07;;;1.90;;
39772;SDS011;25451;51.960;6.250;2023-05-24T07:50:49;12.20;;;2.00;;
39772;SDS011;25451;51.960;6.250;2023-05-24T07:53:16;13.68;;;2.30;;
39772;SDS011;25451;51.960;6.250;2023-05-24T07:55:41;11.97;;;2.10;;
39772;SDS011;25451;51.960;6.250;2023-05-24T07:58:08;13.50;;;2.65;;
39772;SDS011;25451;51.960;6.250;2023-05-24T08:00:33;12.73;;;1.90;;
39772;SDS011;25451;51.960;6.250;2023-05-24T08:02:59;10.87;;;2.20;;
39772;SDS011;25451;51.960;6.250;2023-05-24T08:05:25;10.45;;;1.85;;
39772;SDS011;25451;51.960;6.250;2023-05-24T08:07:51;11.17;;;1.80;;
39772;SDS011;25451;51.960;6.250;2023-05-24T08:10:17;9.63;;;2.00;;
39772;SDS011;25451;51.960;6.250;2023-05-24T08:12:43;11.07;;;2.13;;
39772;SDS011;25451;51.960;6.250;2023-05-24T08:15:09;12.82;;;2.35;;
39772;SDS011;25451;51.960;6.250;2023-05-24T08:17:34;10.05;;;1.98;;
39772;SDS011;25451;51.960;6.250;2023-05-24T08:20:00;8.83;;;2.30;;
39772;SDS011;25451;51.960;6.250;2023-05-24T08:22:28;9.80;;;2.25;;
39772;SDS011;25451;51.960;6.250;2023-05-24T08:24:53;9.60;;;2.03;;
39772;SDS011;25451;51.960;6.250;2023-05-24T08:27:18;10.43;;;2.27;;
39772;SDS011;25451;51.960;6.250;2023-05-24T08:29:44;15.60;;;2.20;;
39772;SDS011;25451;51.960;6.250;2023-05-24T08:32:09;9.88;;;2.10;;
39772;SDS011;25451;51.960;6.250;2023-05-24T08:34:35;7.10;;;2.00;;
39772;SDS011;25451;51.960;6.250;2023-05-24T08:37:01;9.45;;;1.73;;
39772;SDS011;25451;51.960;6.250;2023-05-24T08:39:27;9.30;;;2.00;;
39772;SDS011;25451;51.960;6.250;2023-05-24T08:41:52;10.70;;;1.97;;
39772;SDS011;25451;51.960;6.250;2023-05-24T08:44:19;11.52;;;1.90;;
39772;SDS011;25451;51.960;6.250;2023-05-24T08:46:46;8.60;;;1.95;;
39772;SDS011;25451;51.960;6.250;2023-05-24T08:49:12;7.53;;;1.92;;
39772;SDS011;25451;51.960;6.250;2023-05-24T08:51:39;7.50;;;1.90;;
39772;SDS011;25451;51.960;6.250;2023-05-24T08:54:04;10.50;;;1.90;;
39772;SDS011;25451;51.960;6.250;2023-05-24T08:56:30;9.23;;;2.13;;
39772;SDS011;25451;51.960;6.250;2023-05-24T08:58:56;7.63;;;1.70;;
39772;SDS011;25451;51.960;6.250;2023-05-24T09:01:22;13.80;;;2.40;;
39772;SDS011;25451;51.960;6.250;2023-05-24T09:03:49;9.07;;;1.90;;
39772;SDS011;25451;51.960;6.250;2023-05-24T09:06:16;8.13;;;1.67;;
39772;SDS011;25451;51.960;6.250;2023-05-24T09:08:42;8.50;;;1.73;;
39772;SDS011;25451;51.960;6.250;2023-05-24T09:11:09;8.93;;;1.90;;
39772;SDS011;25451;51.960;6.250;2023-05-24T09:13:35;5.30;;;1.77;;
39772;SDS011;25451;51.960;6.250;2023-05-24T09:16:01;9.60;;;1.98;;
39772;SDS011;25451;51.960;6.250;2023-05-24T09:18:26;9.07;;;2.07;;
39772;SDS011;25451;51.960;6.250;2023-05-24T09:20:52;11.27;;;1.80;;
39772;SDS011;25451;51.960;6.250;2023-05-24T09:23:17;11.77;;;2.03;;
39772;SDS011;25451;51.960;6.250;2023-05-24T09:25:43;10.63;;;1.80;;
39772;SDS011;25451;51.960;6.250;2023-05-24T09:28:11;6.45;;;1.77;;
39772;SDS011;25451;51.960;6.250;2023-05-24T09:30:42;10.95;;;2.20;;
39772;SDS011;25451;51.960;6.250;2023-05-24T09:33:08;12.15;;;2.08;;
39772;SDS011;25451;51.960;6.250;2023-05-24T09:35:35;9.70;;;1.90;;
39772;SDS011;25451;51.960;6.250;2023-05-24T09:38:01;13.25;;;2.00;;
39772;SDS011;25451;51.960;6.250;2023-05-24T09:40:27;8.45;;;1.95;;
39772;SDS011;25451;51.960;6.250;2023-05-24T09:43:03;10.43;;;2.28;;
39772;SDS011;25451;51.960;6.250;2023-05-24T09:45:31;11.05;;;2.10;;
39772;SDS011;25451;51.960;6.250;2023-05-24T09:47:57;10.07;;;2.10;;
39772;SDS011;25451;51.960;6.250;2023-05-24T09:50:22;6.90;;;1.70;;
39772;SDS011;25451;51.960;6.250;2023-05-24T09:52:47;7.53;;;2.00;;
39772;SDS011;25451;51.960;6.250;2023-05-24T09:55:14;7.88;;;2.00;;
39772;SDS011;25451;51.960;6.250;2023-05-24T09:57:41;9.75;;;1.95;;
39772;SDS011;25451;51.960;6.250;2023-05-24T10:00:08;11.13;;;2.08;;
39772;SDS011;25451;51.960;6.250;2023-05-24T10:02:45;6.90;;;1.90;;
39772;SDS011;25451;51.960;6.250;2023-05-24T10:05:23;8.88;;;2.05;;
39772;SDS011;25451;51.960;6.250;2023-05-24T10:07:49;11.13;;;3.23;;
39772;SDS011;25451;51.960;6.250;2023-05-24T10:10:14;6.45;;;1.88;;
39772;SDS011;25451;51.960;6.250;2023-05-24T10:12:40;6.17;;;1.83;;
39772;SDS011;25451;51.960;6.250;2023-05-24T10:15:08;8.25;;;1.83;;
39772;SDS011;25451;51.960;6.250;2023-05-24T10:17:34;8.55;;;1.95;;
39772;SDS011;25451;51.960;6.250;2023-05-24T10:20:00;6.40;;;1.80;;
39772;SDS011;25451;51.960;6.250;2023-05-24T10:22:26;11.52;;;2.10;;
39772;SDS011;25451;51.960;6.250;2023-05-24T10:24:52;10.33;;;2.33;;
39772;SDS011;25451;51.960;6.250;2023-05-24T10:27:23;8.50;;;1.70;;
39772;SDS011;25451;51.960;6.250;2023-05-24T10:30:03;7.53;;;1.75;;
39772;SDS011;25451;51.960;6.250;2023-05-24T10:32:34;9.52;;;2.00;;
39772;SDS011;25451;51.960;6.250;2023-05-24T10:35:03;7.30;;;2.28;;
39772;SDS011;25451;51.960;6.250;2023-05-24T10:37:30;11.00;;;2.17;;
39772;SDS011;25451;51.960;6.250;2023-05-24T10:39:56;7.95;;;2.15;;
39772;SDS011;25451;51.960;6.250;2023-05-24T10:42:23;7.57;;;2.05;;
39772;SDS011;25451;51.960;6.250;2023-05-24T10:44:48;8.83;;;2.30;;
39772;SDS011;25451;51.960;6.250;2023-05-24T10:47:13;11.77;;;2.30;;
39772;SDS011;25451;51.960;6.250;2023-05-24T10:52:16;8.15;;;2.10;;
39772;SDS011;25451;51.960;6.250;2023-05-24T10:57:28;7.28;;;1.80;;
39772;SDS011;25451;51.960;6.250;2023-05-24T10:59:55;6.25;;;1.90;;
39772;SDS011;25451;51.960;6.250;2023-05-24T11:02:21;7.28;;;2.00;;
39772;SDS011;25451;51.960;6.250;2023-05-24T11:04:46;6.30;;;1.88;;
39772;SDS011;25451;51.960;6.250;2023-05-24T11:07:13;5.13;;;1.65;;
39772;SDS011;25451;51.960;6.250;2023-05-24T11:09:39;6.63;;;1.83;;
39772;SDS011;25451;51.960;6.250;2023-05-24T11:12:13;7.10;;;1.95;;
39772;SDS011;25451;51.960;6.250;2023-05-24T11:14:45;7.28;;;1.77;;
39772;SDS011;25451;51.960;6.250;2023-05-24T11:17:15;7.28;;;1.60;;
39772;SDS011;25451;51.960;6.250;2023-05-24T11:19:45;8.13;;;2.00;;
39772;SDS011;25451;51.960;6.250;2023-05-24T11:22:18;10.95;;;2.10;;
39772;SDS011;25451;51.960;6.250;2023-05-24T11:24:50;5.70;;;1.95;;
39772;SDS011;25451;51.960;6.250;2023-05-24T11:27:16;5.90;;;2.13;;
39772;SDS011;25451;51.960;6.250;2023-05-24T11:29:42;7.95;;;2.00;;
39772;SDS011;25451;51.960;6.250;2023-05-24T11:32:09;8.50;;;2.17;;
39772;SDS011;25451;51.960;6.250;2023-05-24T11:34:38;6.38;;;1.75;;
39772;SDS011;25451;51.960;6.250;2023-05-24T11:37:04;5.47;;;1.67;;
39772;SDS011;25451;51.960;6.250;2023-05-24T11:39:34;8.90;;;1.90;;
39772;SDS011;25451;51.960;6.250;2023-05-24T11:42:04;6.55;;;1.80;;
39772;SDS011;25451;51.960;6.250;2023-05-24T11:44:31;7.22;;;2.00;;
39772;SDS011;25451;51.960;6.250;2023-05-24T11:46:58;7.40;;;2.05;;
39772;SDS011;25451;51.960;6.250;2023-05-24T11:49:24;6.82;;;2.10;;
39772;SDS011;25451;51.960;6.250;2023-05-24T11:51:51;5.80;;;1.80;;
39772;SDS011;25451;51.960;6.250;2023-05-24T11:54:18;7.18;;;2.20;;
39772;SDS011;25451;51.960;6.250;2023-05-24T11:56:43;9.00;;;2.13;;
39772;SDS011;25451;51.960;6.250;2023-05-24T11:59:15;6.33;;;2.10;;
39772;SDS011;25451;51.960;6.250;2023-05-24T12:01:44;7.90;;;1.85;;
39772;SDS011;25451;51.960;6.250;2023-05-24T12:04:09;8.93;;;2.03;;
39772;SDS011;25451;51.960;6.250;2023-05-24T12:06:36;5.65;;;2.10;;
39772;SDS011;25451;51.960;6.250;2023-05-24T12:09:06;10.40;;;2.33;;
39772;SDS011;25451;51.960;6.250;2023-05-24T12:11:36;6.93;;;1.70;;
39772;SDS011;25451;51.960;6.250;2023-05-24T12:14:03;7.18;;;2.08;;
39772;SDS011;25451;51.960;6.250;2023-05-24T12:16:29;8.10;;;2.00;;
39772;SDS011;25451;51.960;6.250;2023-05-24T12:18:56;7.70;;;2.20;;
39772;SDS011;25451;51.960;6.250;2023-05-24T12:21:21;8.10;;;2.00;;
39772;SDS011;25451;51.960;6.250;2023-05-24T12:23:46;5.17;;;1.77;;
39772;SDS011;25451;51.960;6.250;2023-05-24T12:26:12;6.50;;;2.00;;
39772;SDS011;25451;51.960;6.250;2023-05-24T12:28:38;7.70;;;1.80;;
39772;SDS011;25451;51.960;6.250;2023-05-24T12:31:03;8.83;;;2.10;;
39772;SDS011;25451;51.960;6.250;2023-05-24T12:33:30;6.72;;;2.08;;
39772;SDS011;25451;51.960;6.250;2023-05-24T12:35:56;8.43;;;2.00;;
39772;SDS011;25451;51.960;6.250;2023-05-24T12:38:26;7.75;;;2.08;;
39772;SDS011;25451;51.960;6.250;2023-05-24T12:40:52;6.68;;;1.90;;
39772;SDS011;25451;51.960;6.250;2023-05-24T12:43:18;7.72;;;1.90;;
39772;SDS011;25451;51.960;6.250;2023-05-24T12:45:45;7.10;;;2.10;;
39772;SDS011;25451;51.960;6.250;2023-05-24T12:48:10;6.87;;;1.70;;
39772;SDS011;25451;51.960;6.250;2023-05-24T12:50:36;7.13;;;1.80;;
39772;SDS011;25451;51.960;6.250;2023-05-24T12:53:01;7.07;;;1.70;;
39772;SDS011;25451;51.960;6.250;2023-05-24T12:55:26;5.37;;;1.70;;
39772;SDS011;25451;51.960;6.250;2023-05-24T12:57:53;8.47;;;2.10;;
39772;SDS011;25451;51.960;6.250;2023-05-24T13:00:28;7.07;;;2.22;;
39772;SDS011;25451;51.960;6.250;2023-05-24T13:02:54;8.35;;;2.00;;
39772;SDS011;25451;51.960;6.250;2023-05-24T13:05:22;9.30;;;1.70;;
39772;SDS011;25451;51.960;6.250;2023-05-24T13:07:49;6.80;;;2.00;;
39772;SDS011;25451;51.960;6.250;2023-05-24T13:10:15;10.77;;;2.35;;
39772;SDS011;25451;51.960;6.250;2023-05-24T13:12:40;10.97;;;2.20;;
39772;SDS011;25451;51.960;6.250;2023-05-24T13:15:06;7.80;;;1.90;;
39772;SDS011;25451;51.960;6.250;2023-05-24T13:17:32;8.48;;;2.22;;
39772;SDS011;25451;51.960;6.250;2023-05-24T13:20:00;9.00;;;2.42;;
39772;SDS011;25451;51.960;6.250;2023-05-24T13:22:29;11.70;;;2.53;;
39772;SDS011;25451;51.960;6.250;2023-05-24T13:24:54;9.93;;;2.30;;
39772;SDS011;25451;51.960;6.250;2023-05-24T13:27:19;7.35;;;2.13;;
39772;SDS011;25451;51.960;6.250;2023-05-24T13:29:45;5.47;;;1.90;;
39772;SDS011;25451;51.960;6.250;2023-05-24T13:32:10;5.73;;;1.93;;
39772;SDS011;25451;51.960;6.250;2023-05-24T13:34:35;8.13;;;2.10;;
39772;SDS011;25451;51.960;6.250;2023-05-24T13:37:01;11.97;;;2.30;;
39772;SDS011;25451;51.960;6.250;2023-05-24T13:39:26;7.37;;;1.83;;
39772;SDS011;25451;51.960;6.250;2023-05-24T13:41:52;7.03;;;1.98;;
39772;SDS011;25451;51.960;6.250;2023-05-24T13:44:17;5.50;;;1.87;;
39772;SDS011;25451;51.960;6.250;2023-05-24T13:46:43;5.30;;;1.90;;
39772;SDS011;25451;51.960;6.250;2023-05-24T13:49:08;6.20;;;2.20;;
39772;SDS011;25451;51.960;6.250;2023-05-24T13:51:35;6.07;;;1.70;;
39772;SDS011;25451;51.960;6.250;2023-05-24T13:54:00;5.03;;;1.60;;
39772;SDS011;25451;51.960;6.250;2023-05-24T13:56:26;5.50;;;1.75;;
39772;SDS011;25451;51.960;6.250;2023-05-24T13:58:56;10.85;;;2.40;;
39772;SDS011;25451;51.960;6.250;2023-05-24T14:01:22;8.80;;;2.00;;
39772;SDS011;25451;51.960;6.250;2023-05-24T14:03:48;6.72;;;2.05;;
39772;SDS011;25451;51.960;6.250;2023-05-24T14:06:13;6.03;;;2.13;;
39772;SDS011;25451;51.960;6.250;2023-05-24T14:08:39;4.43;;;2.00;;
39772;SDS011;25451;51.960;6.250;2023-05-24T14:11:04;8.43;;;1.98;;
39772;SDS011;25451;51.960;6.250;2023-05-24T14:13:30;8.77;;;2.13;;
39772;SDS011;25451;51.960;6.250;2023-05-24T14:15:55;7.90;;;2.17;;
39772;SDS011;25451;51.960;6.250;2023-05-24T14:18:20;8.50;;;2.20;;
39772;SDS011;25451;51.960;6.250;2023-05-24T14:20:46;6.70;;;1.93;;
39772;SDS011;25451;51.960;6.250;2023-05-24T14:23:11;3.70;;;1.73;;
39772;SDS011;25451;51.960;6.250;2023-05-24T14:25:37;6.70;;;1.90;;
39772;SDS011;25451;51.960;6.250;2023-05-24T14:28:02;7.03;;;2.17;;
39772;SDS011;25451;51.960;6.250;2023-05-24T14:30:29;8.30;;;2.27;;
39772;SDS011;25451;51.960;6.250;2023-05-24T14:32:55;7.35;;;2.00;;
39772;SDS011;25451;51.960;6.250;2023-05-24T14:35:21;6.47;;;2.07;;
39772;SDS011;25451;51.960;6.250;2023-05-24T14:37:46;7.10;;;1.93;;
39772;SDS011;25451;51.960;6.250;2023-05-24T14:40:11;7.43;;;2.20;;
39772;SDS011;25451;51.960;6.250;2023-05-24T14:42:37;8.37;;;2.00;;
39772;SDS011;25451;51.960;6.250;2023-05-24T14:45:02;6.77;;;2.00;;
39772;SDS011;25451;51.960;6.250;2023-05-24T14:47:28;5.50;;;1.98;;
39772;SDS011;25451;51.960;6.250;2023-05-24T14:49:54;5.93;;;1.90;;
39772;SDS011;25451;51.960;6.250;2023-05-24T14:52:19;5.53;;;1.80;;
39772;SDS011;25451;51.960;6.250;2023-05-24T14:54:45;6.78;;;2.10;;
39772;SDS011;25451;51.960;6.250;2023-05-24T14:57:11;9.48;;;2.10;;